sensor_id;sensor_type;location;lat;lon;timestamp;pressure;altitude;pressure_sealevel;temperature
28305;BMP280;15569;42.652;23.040;2023-05-20T00:01:57;93253.88;;;17.01
28305;BMP280;15569;42.652;23.040;2023-05-20T00:04:22;93244.94;;;17.01
28305;BMP280;15569;42.652;23.040;2023-05-20T00:06:48;93248.84;;;16.94
28305;BMP280;15569;42.652;23.040;2023-05-20T00:09:13;93255.63;;;16.69
28305;BMP280;15569;42.652;23.040;2023-05-20T00:11:39;93245.38;;;16.70
28305;BMP280;15569;42.652;23.040;2023-05-20T00:14:04;93250.50;;;16.81
28305;BMP280;15569;42.652;23.040;2023-05-20T00:16:30;93254.66;;;16.82
28305;BMP280;15569;42.652;23.040;2023-05-20T00:18:55;93245.94;;;16.66
28305;BMP280;15569;42.652;23.040;2023-05-20T00:21:21;93260.44;;;16.47
28305;BMP280;15569;42.652;23.040;2023-05-20T00:23:46;93245.59;;;16.54
28305;BMP280;15569;42.652;23.040;2023-05-20T00:26:12;93239.31;;;16.52
28305;BMP280;15569;42.652;23.040;2023-05-20T00:28:37;93244.00;;;15.84
28305;BMP280;15569;42.652;23.040;2023-05-20T00:31:03;93232.22;;;15.80
28305;BMP280;15569;42.652;23.040;2023-05-20T00:33:29;93234.19;;;16.18
28305;BMP280;15569;42.652;23.040;2023-05-20T00:35:54;93235.53;;;16.39
28305;BMP280;15569;42.652;23.040;2023-05-20T00:38:20;93231.59;;;16.46
28305;BMP280;15569;42.652;23.040;2023-05-20T00:40:45;93233.13;;;16.51
28305;BMP280;15569;42.652;23.040;2023-05-20T00:43:10;93225.28;;;16.42
28305;BMP280;15569;42.652;23.040;2023-05-20T00:45:36;93227.06;;;16.11
28305;BMP280;15569;42.652;23.040;2023-05-20T00:48:02;93228.56;;;15.95
28305;BMP280;15569;42.652;23.040;2023-05-20T00:50:28;93214.19;;;16.16
28305;BMP280;15569;42.652;23.040;2023-05-20T00:52:54;93233.84;;;16.30
28305;BMP280;15569;42.652;23.040;2023-05-20T00:55:20;93223.81;;;16.17
28305;BMP280;15569;42.652;23.040;2023-05-20T00:57:49;93242.50;;;16.23
28305;BMP280;15569;42.652;23.040;2023-05-20T01:00:14;93239.31;;;16.30
28305;BMP280;15569;42.652;23.040;2023-05-20T01:02:40;93233.25;;;16.34
28305;BMP280;15569;42.652;23.040;2023-05-20T01:05:06;93225.75;;;16.34
28305;BMP280;15569;42.652;23.040;2023-05-20T01:07:32;93242.53;;;16.44
28305;BMP280;15569;42.652;23.040;2023-05-20T01:09:58;93248.72;;;16.45
28305;BMP280;15569;42.652;23.040;2023-05-20T01:12:37;93250.75;;;16.44
28305;BMP280;15569;42.652;23.040;2023-05-20T01:15:07;93241.31;;;16.49
28305;BMP280;15569;42.652;23.040;2023-05-20T01:17:37;93239.28;;;16.50
28305;BMP280;15569;42.652;23.040;2023-05-20T01:20:04;93249.53;;;16.49
28305;BMP280;15569;42.652;23.040;2023-05-20T01:22:31;93231.75;;;16.50
28305;BMP280;15569;42.652;23.040;2023-05-20T01:24:57;93236.34;;;16.44
28305;BMP280;15569;42.652;23.040;2023-05-20T01:27:24;93229.22;;;16.37
28305;BMP280;15569;42.652;23.040;2023-05-20T01:29:50;93216.16;;;16.35
28305;BMP280;15569;42.652;23.040;2023-05-20T01:34:42;93224.78;;;16.47
28305;BMP280;15569;42.652;23.040;2023-05-20T01:37:09;93224.78;;;16.47
28305;BMP280;15569;42.652;23.040;2023-05-20T01:39:38;93239.78;;;16.44
28305;BMP280;15569;42.652;23.040;2023-05-20T01:42:06;93228.16;;;16.02
28305;BMP280;15569;42.652;23.040;2023-05-20T01:44:32;93239.00;;;16.20
28305;BMP280;15569;42.652;23.040;2023-05-20T01:46:58;93226.63;;;16.19
28305;BMP280;15569;42.652;23.040;2023-05-20T01:49:24;93222.50;;;16.18
28305;BMP280;15569;42.652;23.040;2023-05-20T01:51:49;93226.75;;;16.23
28305;BMP280;15569;42.652;23.040;2023-05-20T01:54:15;93226.69;;;16.21
28305;BMP280;15569;42.652;23.040;2023-05-20T01:56:40;93226.63;;;16.19
28305;BMP280;15569;42.652;23.040;2023-05-20T01:59:06;93232.19;;;16.21
28305;BMP280;15569;42.652;23.040;2023-05-20T02:01:31;93226.69;;;16.21
28305;BMP280;15569;42.652;23.040;2023-05-20T02:03:56;93223.22;;;15.99
28305;BMP280;15569;42.652;23.040;2023-05-20T02:06:22;93226.38;;;16.11
28305;BMP280;15569;42.652;23.040;2023-05-20T02:08:47;93215.91;;;16.05
28305;BMP280;15569;42.652;23.040;2023-05-20T02:11:12;93216.63;;;16.06
28305;BMP280;15569;42.652;23.040;2023-05-20T02:13:38;93223.00;;;16.12
28305;BMP280;15569;42.652;23.040;2023-05-20T02:16:03;93226.31;;;16.09
28305;BMP280;15569;42.652;23.040;2023-05-20T02:18:29;93231.84;;;16.11
28305;BMP280;15569;42.652;23.040;2023-05-20T02:21:01;93224.84;;;16.06
28305;BMP280;15569;42.652;23.040;2023-05-20T02:23:26;93222.81;;;16.06
28305;BMP280;15569;42.652;23.040;2023-05-20T02:25:52;93218.72;;;16.07
28305;BMP280;15569;42.652;23.040;2023-05-20T02:28:17;93218.44;;;15.99
28305;BMP280;15569;42.652;23.040;2023-05-20T02:30:42;93212.41;;;16.03
28305;BMP280;15569;42.652;23.040;2023-05-20T02:33:08;93211.13;;;16.06
28305;BMP280;15569;42.652;23.040;2023-05-20T02:35:33;93219.44;;;16.08
28305;BMP280;15569;42.652;23.040;2023-05-20T02:37:59;93213.03;;;16.01
28305;BMP280;15569;42.652;23.040;2023-05-20T02:40:25;93207.53;;;16.01
28305;BMP280;15569;42.652;23.040;2023-05-20T02:42:50;93212.31;;;16.01
28305;BMP280;15569;42.652;23.040;2023-05-20T02:45:15;93220.44;;;15.97
28305;BMP280;15569;42.652;23.040;2023-05-20T02:47:41;93221.19;;;15.99
28305;BMP280;15569;42.652;23.040;2023-05-20T02:50:06;93224.38;;;15.92
28305;BMP280;15569;42.652;23.040;2023-05-20T02:52:32;93228.56;;;15.54
28305;BMP280;15569;42.652;23.040;2023-05-20T02:54:59;93225.16;;;15.75
28305;BMP280;15569;42.652;23.040;2023-05-20T02:57:25;93228.13;;;15.81
28305;BMP280;15569;42.652;23.040;2023-05-20T02:59:53;93225.91;;;15.77
28305;BMP280;15569;42.652;23.040;2023-05-20T03:02:18;93235.06;;;15.84
28305;BMP280;15569;42.652;23.040;2023-05-20T03:04:44;93229.31;;;15.76
28305;BMP280;15569;42.652;23.040;2023-05-20T03:07:10;93243.28;;;15.84
28305;BMP280;15569;42.652;23.040;2023-05-20T03:09:36;93236.41;;;15.83
28305;BMP280;15569;42.652;23.040;2023-05-20T03:12:01;93246.09;;;15.86
28305;BMP280;15569;42.652;23.040;2023-05-20T03:14:27;93240.69;;;15.88
28305;BMP280;15569;42.652;23.040;2023-05-20T03:16:52;93244.78;;;15.87
28305;BMP280;15569;42.652;23.040;2023-05-20T03:19:20;93244.69;;;15.85
28305;BMP280;15569;42.652;23.040;2023-05-20T03:21:46;93251.59;;;15.86
28305;BMP280;15569;42.652;23.040;2023-05-20T03:24:11;93239.78;;;15.81
28305;BMP280;15569;42.652;23.040;2023-05-20T03:26:36;93248.91;;;15.88
28305;BMP280;15569;42.652;23.040;2023-05-20T03:29:07;93243.84;;;15.80
28305;BMP280;15569;42.652;23.040;2023-05-20T03:31:33;93239.09;;;15.81
28305;BMP280;15569;42.652;23.040;2023-05-20T03:33:58;93246.03;;;15.84
28305;BMP280;15569;42.652;23.040;2023-05-20T03:36:23;93251.72;;;15.90
28305;BMP280;15569;42.652;23.040;2023-05-20T03:38:49;93259.16;;;15.87
28305;BMP280;15569;42.652;23.040;2023-05-20T03:41:14;93262.06;;;15.91
28305;BMP280;15569;42.652;23.040;2023-05-20T03:43:40;93266.34;;;15.96
28305;BMP280;15569;42.652;23.040;2023-05-20T03:46:05;93259.72;;;15.84
28305;BMP280;15569;42.652;23.040;2023-05-20T03:48:31;93271.75;;;15.94
28305;BMP280;15569;42.652;23.040;2023-05-20T03:50:56;93276.75;;;16.00
28305;BMP280;15569;42.652;23.040;2023-05-20T03:53:21;93270.63;;;16.01
28305;BMP280;15569;42.652;23.040;2023-05-20T03:55:47;93258.94;;;16.01
28305;BMP280;15569;42.652;23.040;2023-05-20T03:58:13;93280.66;;;16.14
28305;BMP280;15569;42.652;23.040;2023-05-20T04:00:39;93276.69;;;16.19
28305;BMP280;15569;42.652;23.040;2023-05-20T04:03:05;93274.09;;;16.24
28305;BMP280;15569;42.652;23.040;2023-05-20T04:05:31;93284.56;;;16.29
28305;BMP280;15569;42.652;23.040;2023-05-20T04:07:56;93277.81;;;16.32
28305;BMP280;15569;42.652;23.040;2023-05-20T04:10:21;93274.53;;;16.38
28305;BMP280;15569;42.652;23.040;2023-05-20T04:12:47;93269.19;;;16.42
28305;BMP280;15569;42.652;23.040;2023-05-20T04:15:13;93279.72;;;16.49
28305;BMP280;15569;42.652;23.040;2023-05-20T04:17:39;93264.69;;;16.50
28305;BMP280;15569;42.652;23.040;2023-05-20T04:20:05;93264.53;;;16.46
28305;BMP280;15569;42.652;23.040;2023-05-20T04:22:32;93275.13;;;16.34
28305;BMP280;15569;42.652;23.040;2023-05-20T04:24:57;93279.91;;;16.34
28305;BMP280;15569;42.652;23.040;2023-05-20T04:27:24;93270.84;;;16.51
28305;BMP280;15569;42.652;23.040;2023-05-20T04:29:50;93284.31;;;16.64
28305;BMP280;15569;42.652;23.040;2023-05-20T04:32:18;93271.66;;;16.77
28305;BMP280;15569;42.652;23.040;2023-05-20T04:34:44;93272.44;;;16.79
28305;BMP280;15569;42.652;23.040;2023-05-20T04:37:10;93270.72;;;16.90
28305;BMP280;15569;42.652;23.040;2023-05-20T04:39:35;93278.53;;;16.99
28305;BMP280;15569;42.652;23.040;2023-05-20T04:42:04;93273.28;;;17.07
28305;BMP280;15569;42.652;23.040;2023-05-20T04:44:29;93272.75;;;17.13
28305;BMP280;15569;42.652;23.040;2023-05-20T04:46:55;93265.44;;;17.22
28305;BMP280;15569;42.652;23.040;2023-05-20T04:49:23;93269.84;;;17.33
28305;BMP280;15569;42.652;23.040;2023-05-20T04:51:54;93270.16;;;17.43
28305;BMP280;15569;42.652;23.040;2023-05-20T04:54:20;93262.66;;;17.20
28305;BMP280;15569;42.652;23.040;2023-05-20T04:56:45;93267.19;;;16.66
28305;BMP280;15569;42.652;23.040;2023-05-20T04:59:11;93271.78;;;16.16
28305;BMP280;15569;42.652;23.040;2023-05-20T05:01:37;93278.44;;;15.13
28305;BMP280;15569;42.652;23.040;2023-05-20T05:04:02;93275.47;;;15.44
28305;BMP280;15569;42.652;23.040;2023-05-20T05:06:28;93270.97;;;15.72
28305;BMP280;15569;42.652;23.040;2023-05-20T05:08:53;93278.91;;;16.03
28305;BMP280;15569;42.652;23.040;2023-05-20T05:11:18;93277.25;;;16.16
28305;BMP280;15569;42.652;23.040;2023-05-20T05:13:44;93279.25;;;16.13
28305;BMP280;15569;42.652;23.040;2023-05-20T05:16:09;93277.16;;;16.12
28305;BMP280;15569;42.652;23.040;2023-05-20T05:18:35;93266.13;;;15.90
28305;BMP280;15569;42.652;23.040;2023-05-20T05:21:01;93265.84;;;16.02
28305;BMP280;15569;42.652;23.040;2023-05-20T05:23:27;93269.63;;;16.34
28305;BMP280;15569;42.652;23.040;2023-05-20T05:25:53;93268.19;;;16.76
28305;BMP280;15569;42.652;23.040;2023-05-20T05:28:18;93279.38;;;17.06
28305;BMP280;15569;42.652;23.040;2023-05-20T05:30:44;93271.06;;;17.26
28305;BMP280;15569;42.652;23.040;2023-05-20T05:33:09;93280.97;;;17.37
28305;BMP280;15569;42.652;23.040;2023-05-20T05:35:35;93278.59;;;17.51
28305;BMP280;15569;42.652;23.040;2023-05-20T05:38:00;93284.25;;;17.55
28305;BMP280;15569;42.652;23.040;2023-05-20T05:40:26;93291.53;;;16.99
28305;BMP280;15569;42.652;23.040;2023-05-20T05:42:51;93288.81;;;17.23
28305;BMP280;15569;42.652;23.040;2023-05-20T05:45:17;93289.84;;;17.11
28305;BMP280;15569;42.652;23.040;2023-05-20T05:47:42;93293.13;;;17.06
28305;BMP280;15569;42.652;23.040;2023-05-20T05:50:08;93277.75;;;17.44
28305;BMP280;15569;42.652;23.040;2023-05-20T05:52:34;93273.56;;;17.67
28305;BMP280;15569;42.652;23.040;2023-05-20T05:55:01;93266.34;;;17.54
28305;BMP280;15569;42.652;23.040;2023-05-20T05:57:26;93262.28;;;17.82
28305;BMP280;15569;42.652;23.040;2023-05-20T05:59:51;93256.25;;;17.88
28305;BMP280;15569;42.652;23.040;2023-05-20T06:02:17;93260.81;;;18.05
28305;BMP280;15569;42.652;23.040;2023-05-20T06:04:42;93259.72;;;18.16
28305;BMP280;15569;42.652;23.040;2023-05-20T06:07:08;93261.84;;;18.19
28305;BMP280;15569;42.652;23.040;2023-05-20T06:09:33;93263.78;;;18.43
28305;BMP280;15569;42.652;23.040;2023-05-20T06:11:59;93263.22;;;18.48
28305;BMP280;15569;42.652;23.040;2023-05-20T06:14:24;93263.06;;;18.42
28305;BMP280;15569;42.652;23.040;2023-05-20T06:16:50;93256.66;;;18.61
28305;BMP280;15569;42.652;23.040;2023-05-20T06:19:15;93259.75;;;18.77
28305;BMP280;15569;42.652;23.040;2023-05-20T06:21:40;93265.47;;;18.87
28305;BMP280;15569;42.652;23.040;2023-05-20T06:24:06;93265.22;;;18.75
28305;BMP280;15569;42.652;23.040;2023-05-20T06:26:31;93256.91;;;18.73
28305;BMP280;15569;42.652;23.040;2023-05-20T06:28:57;93259.25;;;18.55
28305;BMP280;15569;42.652;23.040;2023-05-20T06:31:22;93251.25;;;18.65
28305;BMP280;15569;42.652;23.040;2023-05-20T06:33:47;93237.31;;;18.59
28305;BMP280;15569;42.652;23.040;2023-05-20T06:36:13;93245.09;;;18.69
28305;BMP280;15569;42.652;23.040;2023-05-20T06:38:38;93245.88;;;18.71
28305;BMP280;15569;42.652;23.040;2023-05-20T06:41:03;93248.56;;;18.69
28305;BMP280;15569;42.652;23.040;2023-05-20T06:43:29;93252.94;;;18.80
28305;BMP280;15569;42.652;23.040;2023-05-20T06:45:54;93246.69;;;18.78
28305;BMP280;15569;42.652;23.040;2023-05-20T06:48:20;93250.19;;;18.80
28305;BMP280;15569;42.652;23.040;2023-05-20T06:50:45;93246.06;;;18.81
28305;BMP280;15569;42.652;23.040;2023-05-20T06:53:10;93243.78;;;19.03
28305;BMP280;15569;42.652;23.040;2023-05-20T06:55:37;93245.81;;;19.01
28305;BMP280;15569;42.652;23.040;2023-05-20T06:58:02;93242.06;;;19.20
28305;BMP280;15569;42.652;23.040;2023-05-20T07:00:27;93229.75;;;19.25
28305;BMP280;15569;42.652;23.040;2023-05-20T07:02:53;93243.13;;;19.39
28305;BMP280;15569;42.652;23.040;2023-05-20T07:05:18;93243.22;;;19.43
28305;BMP280;15569;42.652;23.040;2023-05-20T07:07:44;93243.25;;;19.45
28305;BMP280;15569;42.652;23.040;2023-05-20T07:10:09;93249.50;;;19.49
28305;BMP280;15569;42.652;23.040;2023-05-20T07:12:35;93241.03;;;19.37
28305;BMP280;15569;42.652;23.040;2023-05-20T07:15:01;93234.88;;;19.41
28305;BMP280;15569;42.652;23.040;2023-05-20T07:17:26;93241.19;;;19.45
28305;BMP280;15569;42.652;23.040;2023-05-20T07:19:54;93242.38;;;19.72
28305;BMP280;15569;42.652;23.040;2023-05-20T07:22:19;93252.84;;;19.79
28305;BMP280;15569;42.652;23.040;2023-05-20T07:24:45;93235.44;;;19.69
28305;BMP280;15569;42.652;23.040;2023-05-20T07:27:10;93245.47;;;19.90
28305;BMP280;15569;42.652;23.040;2023-05-20T07:29:36;93244.00;;;19.87
28305;BMP280;15569;42.652;23.040;2023-05-20T07:32:02;93241.97;;;19.87
28305;BMP280;15569;42.652;23.040;2023-05-20T07:34:28;93245.47;;;19.90
28305;BMP280;15569;42.652;23.040;2023-05-20T07:36:53;93251.66;;;19.90
28305;BMP280;15569;42.652;23.040;2023-05-20T07:39:18;93232.97;;;19.87
28305;BMP280;15569;42.652;23.040;2023-05-20T07:41:44;93252.03;;;20.12
28305;BMP280;15569;42.652;23.040;2023-05-20T07:44:10;93243.03;;;20.10
28305;BMP280;15569;42.652;23.040;2023-05-20T07:46:36;93242.91;;;20.04
28305;BMP280;15569;42.652;23.040;2023-05-20T07:49:06;93239.00;;;20.17
28305;BMP280;15569;42.652;23.040;2023-05-20T07:51:32;93245.56;;;19.96
28305;BMP280;15569;42.652;23.040;2023-05-20T07:53:57;93243.78;;;20.14
28305;BMP280;15569;42.652;23.040;2023-05-20T07:56:23;93223.63;;;20.06
28305;BMP280;15569;42.652;23.040;2023-05-20T07:58:53;93226.66;;;20.22
28305;BMP280;15569;42.652;23.040;2023-05-20T08:01:19;93239.16;;;20.27
28305;BMP280;15569;42.652;23.040;2023-05-20T08:03:45;93241.88;;;20.23
28305;BMP280;15569;42.652;23.040;2023-05-20T08:06:11;93235.88;;;20.38
28305;BMP280;15569;42.652;23.040;2023-05-20T08:08:36;93240.63;;;20.32
28305;BMP280;15569;42.652;23.040;2023-05-20T08:11:01;93229.56;;;20.32
28305;BMP280;15569;42.652;23.040;2023-05-20T08:13:28;93235.06;;;20.28
28305;BMP280;15569;42.652;23.040;2023-05-20T08:15:53;93230.22;;;20.28
28305;BMP280;15569;42.652;23.040;2023-05-20T08:18:19;93228.34;;;20.41
28305;BMP280;15569;42.652;23.040;2023-05-20T08:20:44;93219.47;;;20.49
28305;BMP280;15569;42.652;23.040;2023-05-20T08:23:10;93226.59;;;20.64
28305;BMP280;15569;42.652;23.040;2023-05-20T08:25:35;93211.28;;;20.55
28305;BMP280;15569;42.652;23.040;2023-05-20T08:28:02;93210.66;;;20.60
28305;BMP280;15569;42.652;23.040;2023-05-20T08:30:29;93201.63;;;20.58
28305;BMP280;15569;42.652;23.040;2023-05-20T08:32:55;93212.50;;;20.46
28305;BMP280;15569;42.652;23.040;2023-05-20T08:35:21;93203.72;;;20.57
28305;BMP280;15569;42.652;23.040;2023-05-20T08:37:46;93210.00;;;20.62
28305;BMP280;15569;42.652;23.040;2023-05-20T08:40:12;93212.19;;;20.71
28305;BMP280;15569;42.652;23.040;2023-05-20T08:42:48;93209.41;;;20.71
28305;BMP280;15569;42.652;23.040;2023-05-20T08:45:16;93200.31;;;20.63
28305;BMP280;15569;42.652;23.040;2023-05-20T08:47:43;93209.47;;;20.73
28305;BMP280;15569;42.652;23.040;2023-05-20T08:50:12;93207.44;;;20.80
28305;BMP280;15569;42.652;23.040;2023-05-20T08:52:46;93208.31;;;20.92
28305;BMP280;15569;42.652;23.040;2023-05-20T08:55:23;93210.31;;;20.86
28305;BMP280;15569;42.652;23.040;2023-05-20T08:57:53;93195.81;;;20.87
28305;BMP280;15569;42.652;23.040;2023-05-20T09:00:22;93202.69;;;20.84
28305;BMP280;15569;42.652;23.040;2023-05-20T09:02:51;93191.00;;;20.88
28305;BMP280;15569;42.652;23.040;2023-05-20T09:05:17;93184.06;;;20.87
28305;BMP280;15569;42.652;23.040;2023-05-20T09:07:43;93193.09;;;20.89
28305;BMP280;15569;42.652;23.040;2023-05-20T09:10:09;93209.50;;;20.77
28305;BMP280;15569;42.652;23.040;2023-05-20T09:12:35;93209.69;;;20.91
28305;BMP280;15569;42.652;23.040;2023-05-20T09:15:01;93207.41;;;20.76
28305;BMP280;15569;42.652;23.040;2023-05-20T09:17:26;93209.09;;;20.99
28305;BMP280;15569;42.652;23.040;2023-05-20T09:19:52;93198.75;;;21.03
28305;BMP280;15569;42.652;23.040;2023-05-20T09:22:25;93207.91;;;21.16
28305;BMP280;15569;42.652;23.040;2023-05-20T09:24:52;93209.28;;;21.15
28305;BMP280;15569;42.652;23.040;2023-05-20T09:27:18;93196.78;;;21.10
28305;BMP280;15569;42.652;23.040;2023-05-20T09:29:46;93203.84;;;21.21
28305;BMP280;15569;42.652;23.040;2023-05-20T09:32:12;93204.63;;;21.31
28305;BMP280;15569;42.652;23.040;2023-05-20T09:34:38;93208.22;;;21.44
28305;BMP280;15569;42.652;23.040;2023-05-20T09:37:06;93190.88;;;21.39
28305;BMP280;15569;42.652;23.040;2023-05-20T09:39:38;93201.91;;;21.35
28305;BMP280;15569;42.652;23.040;2023-05-20T09:42:11;93195.09;;;21.44
28305;BMP280;15569;42.652;23.040;2023-05-20T09:44:41;93202.13;;;21.57
28305;BMP280;15569;42.652;23.040;2023-05-20T09:47:09;93197.94;;;21.54
28305;BMP280;15569;42.652;23.040;2023-05-20T09:49:36;93186.25;;;21.60
28305;BMP280;15569;42.652;23.040;2023-05-20T09:52:02;93189.50;;;21.42
28305;BMP280;15569;42.652;23.040;2023-05-20T09:54:28;93186.16;;;21.52
28305;BMP280;15569;42.652;23.040;2023-05-20T09:56:57;93186.13;;;21.48
28305;BMP280;15569;42.652;23.040;2023-05-20T09:59:23;93180.63;;;21.52
28305;BMP280;15569;42.652;23.040;2023-05-20T10:01:49;93178.75;;;21.75
28305;BMP280;15569;42.652;23.040;2023-05-20T10:04:16;93179.53;;;21.81
28305;BMP280;15569;42.652;23.040;2023-05-20T10:06:45;93181.50;;;21.71
28305;BMP280;15569;42.652;23.040;2023-05-20T10:12:03;93171.09;;;21.67
28305;BMP280;15569;42.652;23.040;2023-05-20T10:14:42;93156.69;;;21.81
28305;BMP280;15569;42.652;23.040;2023-05-20T10:20:12;93151.19;;;21.87
28305;BMP280;15569;42.652;23.040;2023-05-20T10:22:38;93157.41;;;21.83
28305;BMP280;15569;42.652;23.040;2023-05-20T10:25:06;93149.03;;;21.73
28305;BMP280;15569;42.652;23.040;2023-05-20T10:27:42;93147.00;;;21.84
28305;BMP280;15569;42.652;23.040;2023-05-20T10:30:18;93132.41;;;21.75
28305;BMP280;15569;42.652;23.040;2023-05-20T10:32:57;93128.38;;;21.90
28305;BMP280;15569;42.652;23.040;2023-05-20T10:35:27;93128.44;;;21.92
28305;BMP280;15569;42.652;23.040;2023-05-20T10:37:54;93123.44;;;21.79
28305;BMP280;15569;42.652;23.040;2023-05-20T10:40:21;93120.78;;;21.89
28305;BMP280;15569;42.652;23.040;2023-05-20T10:42:47;93115.22;;;21.87
28305;BMP280;15569;42.652;23.040;2023-05-20T10:45:26;93116.53;;;21.74
28305;BMP280;15569;42.652;23.040;2023-05-20T10:47:57;93117.91;;;21.77
28305;BMP280;15569;42.652;23.040;2023-05-20T10:50:33;93122.06;;;21.78
28305;BMP280;15569;42.652;23.040;2023-05-20T10:53:06;93117.88;;;21.75
28305;BMP280;15569;42.652;23.040;2023-05-20T10:55:39;93092.94;;;21.65
28305;BMP280;15569;42.652;23.040;2023-05-20T10:58:06;93100.00;;;21.86
28305;BMP280;15569;42.652;23.040;2023-05-20T11:00:35;93100.00;;;21.90
28305;BMP280;15569;42.652;23.040;2023-05-20T11:03:01;93118.84;;;22.13
28305;BMP280;15569;42.652;23.040;2023-05-20T11:05:28;93115.47;;;22.25
28305;BMP280;15569;42.652;23.040;2023-05-20T11:08:01;93107.84;;;22.23
28305;BMP280;15569;42.652;23.040;2023-05-20T11:10:26;93106.56;;;22.42
28305;BMP280;15569;42.652;23.040;2023-05-20T11:12:52;93097.59;;;22.50
28305;BMP280;15569;42.652;23.040;2023-05-20T11:15:17;93099.09;;;22.81
28305;BMP280;15569;42.652;23.040;2023-05-20T11:17:53;93093.53;;;22.75
28305;BMP280;15569;42.652;23.040;2023-05-20T11:20:19;93096.28;;;22.71
28305;BMP280;15569;42.652;23.040;2023-05-20T11:22:44;93093.59;;;22.93
28305;BMP280;15569;42.652;23.040;2023-05-20T11:25:10;93079.69;;;22.81
28305;BMP280;15569;42.652;23.040;2023-05-20T11:27:38;93079.03;;;23.03
28305;BMP280;15569;42.652;23.040;2023-05-20T11:30:04;93085.28;;;23.07
28305;BMP280;15569;42.652;23.040;2023-05-20T11:32:30;93074.22;;;23.19
28305;BMP280;15569;42.652;23.040;2023-05-20T11:34:55;93073.47;;;23.03
28305;BMP280;15569;42.652;23.040;2023-05-20T11:37:22;93084.63;;;23.27
28305;BMP280;15569;42.652;23.040;2023-05-20T11:39:48;93071.44;;;23.29
28305;BMP280;15569;42.652;23.040;2023-05-20T11:42:14;93079.78;;;23.41
28305;BMP280;15569;42.652;23.040;2023-05-20T11:44:43;93087.41;;;23.63
28305;BMP280;15569;42.652;23.040;2023-05-20T11:47:09;93068.00;;;23.39
28305;BMP280;15569;42.652;23.040;2023-05-20T11:49:39;93077.00;;;23.51
28305;BMP280;15569;42.652;23.040;2023-05-20T11:52:07;93070.06;;;23.74
28305;BMP280;15569;42.652;23.040;2023-05-20T11:54:34;93081.84;;;23.59
28305;BMP280;15569;42.652;23.040;2023-05-20T11:57:00;93068.59;;;23.97
28305;BMP280;15569;42.652;23.040;2023-05-20T11:59:25;93054.69;;;24.11
28305;BMP280;15569;42.652;23.040;2023-05-20T12:13:53;93044.91;;;24.28
28305;BMP280;15569;42.652;23.040;2023-05-20T12:16:18;93042.69;;;24.57
28305;BMP280;15569;42.652;23.040;2023-05-20T12:18:44;93057.22;;;24.72
28305;BMP280;15569;42.652;23.040;2023-05-20T12:21:09;93057.03;;;25.04
28305;BMP280;15569;42.652;23.040;2023-05-20T12:23:34;93043.63;;;25.28
28305;BMP280;15569;42.652;23.040;2023-05-20T12:26:00;93058.06;;;25.49
28305;BMP280;15569;42.652;23.040;2023-05-20T12:28:25;93056.16;;;25.27
28305;BMP280;15569;42.652;23.040;2023-05-20T12:30:51;93051.91;;;25.34
28305;BMP280;15569;42.652;23.040;2023-05-20T12:33:17;93049.91;;;25.27
28305;BMP280;15569;42.652;23.040;2023-05-20T12:35:42;93032.63;;;25.10
28305;BMP280;15569;42.652;23.040;2023-05-20T12:38:08;93037.84;;;25.52
28305;BMP280;15569;42.652;23.040;2023-05-20T12:40:34;93038.69;;;25.35
28305;BMP280;15569;42.652;23.040;2023-05-20T12:43:01;93033.72;;;25.49
28305;BMP280;15569;42.652;23.040;2023-05-20T12:45:27;93030.63;;;25.01
28305;BMP280;15569;42.652;23.040;2023-05-20T12:47:53;93024.00;;;25.44
28305;BMP280;15569;42.652;23.040;2023-05-20T12:50:20;93026.00;;;25.54
28305;BMP280;15569;42.652;23.040;2023-05-20T12:52:46;93016.16;;;25.65
28305;BMP280;15569;42.652;23.040;2023-05-20T12:55:11;93028.03;;;25.63
28305;BMP280;15569;42.652;23.040;2023-05-20T12:57:40;93030.41;;;25.29
28305;BMP280;15569;42.652;23.040;2023-05-20T13:00:07;93032.97;;;25.53
28305;BMP280;15569;42.652;23.040;2023-05-20T13:02:34;93048.44;;;24.17
28305;BMP280;15569;42.652;23.040;2023-05-20T13:04:59;93057.56;;;23.61
28305;BMP280;15569;42.652;23.040;2023-05-20T13:07:25;93044.38;;;23.68
28305;BMP280;15569;42.652;23.040;2023-05-20T13:09:51;93061.03;;;23.40
28305;BMP280;15569;42.652;23.040;2023-05-20T13:12:17;93048.53;;;23.15
28305;BMP280;15569;42.652;23.040;2023-05-20T13:14:42;93040.22;;;23.09
28305;BMP280;15569;42.652;23.040;2023-05-20T13:17:08;93036.09;;;23.32
28305;BMP280;15569;42.652;23.040;2023-05-20T13:19:33;93029.00;;;24.07
28305;BMP280;15569;42.652;23.040;2023-05-20T13:21:59;93015.81;;;24.13
28305;BMP280;15569;42.652;23.040;2023-05-20T13:24:24;93008.84;;;24.20
28305;BMP280;15569;42.652;23.040;2023-05-20T13:26:50;93004.53;;;24.52
28305;BMP280;15569;42.652;23.040;2023-05-20T13:29:16;93005.22;;;24.46
28305;BMP280;15569;42.652;23.040;2023-05-20T13:31:41;93001.56;;;24.78
28305;BMP280;15569;42.652;23.040;2023-05-20T13:34:06;92987.84;;;24.54
28305;BMP280;15569;42.652;23.040;2023-05-20T13:36:32;92994.69;;;24.69
28305;BMP280;15569;42.652;23.040;2023-05-20T13:38:58;92987.28;;;25.26
28305;BMP280;15569;42.652;23.040;2023-05-20T13:41:23;93000.81;;;24.89
28305;BMP280;15569;42.652;23.040;2023-05-20T13:43:50;92998.22;;;25.50
28305;BMP280;15569;42.652;23.040;2023-05-20T13:46:16;92995.88;;;25.00
28305;BMP280;15569;42.652;23.040;2023-05-20T13:48:42;92987.69;;;25.58
28305;BMP280;15569;42.652;23.040;2023-05-20T13:51:07;92990.38;;;25.68
28305;BMP280;15569;42.652;23.040;2023-05-20T13:53:33;92977.22;;;26.22
28305;BMP280;15569;42.652;23.040;2023-05-20T13:55:58;92979.25;;;26.25
28305;BMP280;15569;42.652;23.040;2023-05-20T13:58:23;92981.81;;;26.41
28305;BMP280;15569;42.652;23.040;2023-05-20T14:00:49;92978.06;;;26.10
28305;BMP280;15569;42.652;23.040;2023-05-20T14:03:15;92982.63;;;26.34
28305;BMP280;15569;42.652;23.040;2023-05-20T14:05:40;92968.91;;;26.18
28305;BMP280;15569;42.652;23.040;2023-05-20T14:08:06;92969.66;;;25.51
28305;BMP280;15569;42.652;23.040;2023-05-20T14:10:31;92971.09;;;25.48
28305;BMP280;15569;42.652;23.040;2023-05-20T14:12:57;92979.44;;;26.11